createdAt,value
2022-10-24T00:10:42.120Z,15.5
2022-10-24T00:25:15.982Z,15.2
2022-10-24T00:39:49.619Z,15.1
2022-10-24T00:54:23.144Z,15.1
2022-10-24T01:08:57.015Z,15.1
2022-10-24T01:23:31.394Z,15.3
2022-10-24T01:37:56.431Z,15.3
2022-10-24T01:52:29.459Z,15.3
2022-10-24T02:07:03.441Z,15.2
2022-10-24T02:21:37.813Z,15.4
2022-10-24T02:36:11.796Z,15.2
2022-10-24T02:50:46.323Z,15.4
2022-10-24T03:05:20.333Z,15.4
2022-10-24T03:19:54.371Z,15.6
2022-10-24T03:34:28.599Z,15.6
2022-10-24T04:03:36.845Z,15.7
2022-10-24T04:18:11.508Z,15.8
2022-10-24T04:32:44.818Z,15.6
2022-10-24T05:01:52.287Z,15.6
2022-10-24T05:16:27.053Z,15.7
2022-10-24T05:30:59.191Z,15.6
2022-10-24T05:45:32.481Z,15.6
2022-10-24T06:00:06.413Z,15.6
2022-10-24T06:14:40.602Z,15.6
2022-10-24T06:29:13.767Z,15.6
2022-10-24T06:43:50.552Z,15.8
2022-10-24T06:58:23.572Z,15.9
2022-10-24T07:12:58.069Z,15.9
2022-10-24T07:27:32.393Z,16
2022-10-24T07:42:06.708Z,16
2022-10-24T07:56:40.934Z,16.2
2022-10-24T08:11:14.839Z,16.5
2022-10-24T08:25:47.586Z,16.5
2022-10-24T08:40:21.681Z,16.5
2022-10-24T08:54:56.795Z,16.7
2022-10-24T09:09:28.823Z,16.8
2022-10-24T09:24:04.068Z,17.1
2022-10-24T09:38:38.099Z,17.5
2022-10-24T09:53:13.001Z,17.5
2022-10-24T10:07:48.222Z,17.6
2022-10-24T10:22:21.334Z,17.9
2022-10-24T10:36:55.668Z,17.8
2022-10-24T10:51:30.279Z,18
2022-10-24T11:06:05.725Z,18
2022-10-24T11:20:40.650Z,17.7
2022-10-24T11:35:15.286Z,17.8
2022-10-24T11:49:48.387Z,17.7
2022-10-24T12:04:25.460Z,17.9
2022-10-24T12:18:58.724Z,18.1
2022-10-24T12:33:33.338Z,18.1
2022-10-24T12:48:06.685Z,17.6
2022-10-24T13:02:38.280Z,17.5
2022-10-24T13:17:10.301Z,16.8
2022-10-24T13:31:43.793Z,16.6
2022-10-24T13:46:16.920Z,16.4
2022-10-24T14:00:50.115Z,16.1
2022-10-24T14:15:22.278Z,16.1
2022-10-24T14:29:56.537Z,16.4
2022-10-24T14:59:08.227Z,16.2
2022-10-24T15:13:42.310Z,16.1
2022-10-24T15:28:29.885Z,16.2
2022-10-24T15:43:03.761Z,16.3
2022-10-24T15:57:38.270Z,16.4
2022-10-24T16:12:12.600Z,16.2
2022-10-24T16:26:46.001Z,16.3
2022-10-24T16:41:19.897Z,16.1
2022-10-24T16:55:54.687Z,16.2
2022-10-24T17:10:28.395Z,16.1
2022-10-24T17:25:02.240Z,16
2022-10-24T17:39:34.876Z,16
2022-10-24T17:54:08.397Z,15.9
2022-10-24T18:08:40.979Z,15.8
2022-10-24T18:23:14.862Z,15.9
2022-10-24T18:37:49.190Z,15.8
2022-10-24T18:52:22.956Z,15.8
2022-10-24T19:06:58.273Z,15.8
2022-10-24T19:21:32.183Z,15.8
2022-10-24T19:36:05.793Z,15.9
2022-10-24T19:50:39.997Z,15.8
2022-10-24T20:05:13.129Z,15.7
2022-10-24T20:19:52.693Z,15.5
2022-10-24T20:34:29.569Z,15.5
2022-10-24T20:49:00.015Z,15.3
2022-10-24T21:03:40.212Z,15.3
2022-10-24T21:18:16.844Z,15.2
2022-10-24T21:32:47.153Z,15.2
2022-10-24T21:47:20.126Z,15
2022-10-24T22:01:55.898Z,15.2
2022-10-24T22:16:35.197Z,15.1
2022-10-24T22:31:11.682Z,15.1
2022-10-24T22:45:42.330Z,15
2022-10-24T23:00:22.339Z,15
2022-10-24T23:14:57.658Z,14.9
2022-10-24T23:29:27.661Z,14.9
2022-10-24T23:44:01.693Z,15
2022-10-24T23:58:35.611Z,15
